| time (UTC) | temp F | wind direction | speed knots | gust knots | rain 1hr in | rain 24hr in | rain mn in | humidity % | barometer mb |
| 20260503223503 | 91 | 126 | 1.7 | 2.6 | 0.00 | 0.00 | 0.00 | 27 | 1020.4 |
| 20260503222958 | 90 | 221 | 3.5 | 6.1 | 0.00 | 0.00 | 0.00 | 27 | 1020.1 |
| 20260503222457 | 91 | 59 | 2.6 | 5.2 | 0.00 | 0.00 | 0.00 | 28 | 1020.2 |
| 20260503221954 | 90 | 48 | 2.6 | 5.2 | 0.00 | 0.00 | 0.00 | 28 | 1020.5 |
| 20260503221453 | 90 | 13 | 1.7 | 7.0 | 0.00 | 0.00 | 0.00 | 28 | 1020.6 |
| 20260503220949 | 90 | 146 | 2.6 | 5.2 | 0.00 | 0.00 | 0.00 | 29 | 1020.6 |
| 20260503220445 | 89 | 200 | 2.6 | 5.2 | 0.00 | 0.00 | 0.00 | 28 | 1020.7 |
| 20260503215942 | 89 | 156 | 3.5 | 7.0 | 0.00 | 0.00 | 0.00 | 28 | 1020.8 |
| 20260503215439 | 89 | 285 | 0.9 | 6.1 | 0.00 | 0.00 | 0.00 | 29 | 1020.8 |
| 20260503214937 | 89 | 166 | 1.7 | 6.1 | 0.00 | 0.00 | 0.00 | 27 | 1020.9 |
| 20260503214434 | 88 | 221 | 1.7 | 2.6 | 0.00 | 0.00 | 0.00 | 28 | 1020.9 |
| 20260503213931 | 88 | 58 | 2.6 | 5.2 | 0.00 | 0.00 | 0.00 | 29 | 1021.2 |
| 20260503213430 | 87 | 171 | 4.3 | 7.0 | 0.00 | 0.00 | 0.00 | 30 | 1020.9 |
| 20260503212925 | 87 | 8 | 6.1 | 7.8 | 0.00 | 0.00 | 0.00 | 32 | 1020.9 |
| 20260503212423 | 87 | 140 | 1.7 | 5.2 | 0.00 | 0.00 | 0.00 | 33 | 1021.0 |
| 20260503211920 | 87 | 56 | 2.6 | 5.2 | 0.00 | 0.00 | 0.00 | 33 | 1021.2 |
| 20260503211417 | 87 | 183 | 2.6 | 5.2 | 0.00 | 0.00 | 0.00 | 32 | 1021.2 |
| 20260503210912 | 87 | 42 | 3.5 | 3.5 | 0.00 | 0.00 | 0.00 | 33 | 1021.2 |
| 20260503210410 | 86 | 251 | 1.7 | 5.2 | 0.00 | 0.00 | 0.00 | 34 | 1021.4 |
| 20260503205904 | 86 | 48 | 2.6 | 7.0 | 0.00 | 0.00 | 0.00 | 33 | 1021.4 |
| 20260503205402 | 86 | 86 | 2.6 | 5.2 | 0.00 | 0.00 | 0.00 | 33 | 1021.5 |
| 20260503204858 | 86 | 94 | 1.7 | 2.6 | 0.00 | 0.00 | 0.00 | 35 | 1021.5 |
| 20260503204355 | 87 | 205 | 1.7 | 3.5 | 0.00 | 0.00 | 0.00 | 34 | 1021.6 |
| 20260503203852 | 86 | 62 | 0.9 | 2.6 | 0.00 | 0.00 | 0.00 | 37 | 1021.8 |
| 20260503203349 | 86 | 171 | 0.9 | 1.7 | 0.00 | 0.00 | 0.00 | 41 | 1022.0 |
| 20260503202846 | 85 | 212 | 1.7 | 6.1 | 0.00 | 0.00 | 0.00 | 37 | 1021.8 |
| 20260503202345 | 85 | 48 | 1.7 | 2.6 | 0.00 | 0.00 | 0.00 | 39 | 1022.0 |
| 20260503201843 | 84 | 112 | 1.7 | 5.2 | 0.00 | 0.00 | 0.00 | 38 | 1022.0 |
| 20260503201339 | 84 | 102 | 1.7 | 3.5 | 0.00 | 0.00 | 0.00 | 39 | 1022.0 |
| 20260503200837 | 84 | 120 | 3.5 | 6.1 | 0.00 | 0.00 | 0.00 | 38 | 1021.7 |
| 20260503200332 | 84 | 203 | 1.7 | 5.2 | 0.00 | 0.00 | 0.00 | 39 | 1022.0 |
| 20260503195830 | 83 | 192 | 1.7 | 3.5 | 0.00 | 0.00 | 0.00 | 39 | 1022.2 |
| 20260503195326 | 82 | 43 | 1.7 | 7.0 | 0.00 | 0.00 | 0.00 | 40 | 1022.1 |
| 20260503194824 | 82 | 47 | 3.5 | 6.1 | 0.00 | 0.00 | 0.00 | 39 | 1022.4 |
| 20260503194319 | 82 | 162 | 2.6 | 6.1 | 0.00 | 0.00 | 0.00 | 40 | 1022.4 |
| 20260503193816 | 82 | 75 | 1.7 | 2.6 | 0.00 | 0.00 | 0.00 | 46 | 1022.5 |
| 20260503193312 | 81 | 37 | 0.9 | 7.0 | 0.00 | 0.00 | 0.00 | 42 | 1022.7 |
| 20260503192808 | 81 | 136 | 1.7 | 3.5 | 0.00 | 0.00 | 0.00 | 42 | 1022.6 |
| 20260503192305 | 81 | 150 | 1.7 | 5.2 | 0.00 | 0.00 | 0.00 | 43 | 1022.5 |
| 20260503191800 | 81 | 67 | 0.9 | 5.2 | 0.00 | 0.00 | 0.00 | 44 | 1022.8 |
| 20260503191257 | 80 | 192 | 2.6 | 5.2 | 0.00 | 0.00 | 0.00 | 43 | 1022.6 |
| 20260503190754 | 80 | 280 | 1.7 | 6.1 | 0.00 | 0.00 | 0.00 | 45 | 1022.9 |
| 20260503190251 | 79 | 72 | 1.7 | 3.5 | 0.00 | 0.00 | 0.00 | 46 | 1022.8 |
| 20260503185748 | 79 | 83 | 0.9 | 3.5 | 0.00 | 0.00 | 0.00 | 47 | 1022.8 |
| 20260503185243 | 79 | 186 | 0.9 | 2.6 | 0.00 | 0.00 | 0.00 | 47 | 1023.0 |
| 20260503184738 | 79 | 109 | 3.5 | 5.2 | 0.00 | 0.00 | 0.00 | 46 | 1023.1 |
| 20260503184235 | 78 | 220 | 0.0 | 2.6 | 0.00 | 0.00 | 0.00 | 50 | 1023.1 |
| 20260503183731 | 77 | 131 | 0.9 | 2.6 | 0.00 | 0.00 | 0.00 | 51 | 1023.0 |
| 20260503183229 | 77 | 96 | 0.9 | 3.5 | 0.00 | 0.00 | 0.00 | 51 | 1023.2 |
| 20260503182726 | 77 | 209 | 1.7 | 3.5 | 0.00 | 0.00 | 0.00 | 50 | 1023.2 |
| 20260503182225 | 77 | 174 | 0.0 | 3.5 | 0.00 | 0.00 | 0.00 | 54 | 1023.4 |
| 20260503181721 | 76 | 25 | 1.7 | 1.7 | 0.00 | 0.00 | 0.00 | 53 | 1023.1 |
| 20260503181218 | 76 | 67 | 0.9 | 1.7 | 0.00 | 0.00 | 0.00 | 54 | 1023.3 |
| 20260503180714 | 75 | 176 | 0.0 | 1.7 | 0.00 | 0.00 | 0.00 | 57 | 1023.4 |
| 20260503180213 | 76 | 62 | 2.6 | 2.6 | 0.00 | 0.00 | 0.00 | 53 | 1023.3 |
| 20260503175710 | 75 | 304 | 0.9 | 2.6 | 0.00 | 0.00 | 0.00 | 51 | 1023.6 |
| 20260503175208 | 75 | 210 | 1.7 | 2.6 | 0.00 | 0.00 | 0.00 | 51 | 1023.5 |
| 20260503174703 | 74 | 198 | 0.9 | 0.9 | 0.00 | 0.00 | 0.00 | 55 | 1023.4 |
| 20260503174201 | 73 | 186 | 1.7 | 1.7 | 0.00 | 0.00 | 0.00 | 54 | 1023.6 |
| 20260503173656 | 73 | 179 | 0.0 | 1.7 | 0.00 | 0.00 | 0.00 | 56 | 1023.6 |
| 20260503173152 | 73 | 279 | 0.9 | 1.7 | 0.00 | 0.00 | 0.00 | 57 | 1023.6 |
| 20260503172650 | 73 | 114 | 1.7 | 2.6 | 0.00 | 0.00 | 0.00 | 58 | 1023.7 |
| 20260503172147 | 72 | 168 | 0.0 | 2.6 | 0.00 | 0.00 | 0.00 | 58 | 1023.7 |
| 20260503171643 | 72 | 205 | 1.7 | 2.6 | 0.00 | 0.00 | 0.00 | 58 | 1023.4 |
| 20260503171140 | 71 | 204 | 0.9 | 2.6 | 0.00 | 0.00 | 0.00 | 57 | 1023.9 |
| 20260503170637 | 71 | 151 | 0.0 | 1.7 | 0.00 | 0.00 | 0.00 | 59 | 1023.8 |
| 20260503170134 | 70 | 67 | 1.7 | 2.6 | 0.00 | 0.00 | 0.00 | 60 | 1023.7 |
| 20260503150525 | 60 | 192 | 0.0 | 0.9 | 0.00 | 0.00 | 0.00 | 84 | 1024.1 |
| 20260503131419 | 52 | 198 | 0.0 | 0.0 | 0.00 | 0.00 | 0.00 | 96 | 1023.7 |
| 20260503130915 | 52 | 198 | 0.0 | 0.0 | 0.00 | 0.00 | 0.00 | 96 | 1023.8 |
| 20260503130413 | 52 | 182 | 0.0 | 0.0 | 0.00 | 0.00 | 0.00 | 96 | 1023.6 |
| 20260503110817 | 53 | 221 | 0.0 | 0.0 | 0.00 | 0.00 | 0.00 | 94 | 1024.2 |
| 20260503110314 | 53 | 221 | 0.0 | 0.0 | 0.00 | 0.00 | 0.00 | 93 | 1024.2 |
| 20260503100240 | 55 | 218 | 0.0 | 0.0 | 0.00 | 0.00 | 0.00 | 90 | 1024.2 |
| 20260503090159 | 57 | 195 | 0.0 | 0.9 | 0.00 | 0.00 | 0.00 | 86 | 1024.2 |
| 20260503081636 | 58 | 181 | 0.0 | 0.9 | 0.00 | 0.00 | 0.00 | 86 | 1024.4 |
| 20260503081132 | 59 | 172 | 0.0 | 0.0 | 0.00 | 0.00 | 0.00 | 86 | 1024.2 |
| 20260503080628 | 59 | 205 | 0.0 | 0.0 | 0.00 | 0.00 | 0.00 | 85 | 1024.1 |
| 20260503080125 | 59 | 19 | 0.9 | 1.7 | 0.00 | 0.00 | 0.00 | 85 | 1024.1 |
| 20260503072602 | 60 | 216 | 0.0 | 0.0 | 0.00 | 0.00 | 0.00 | 82 | 1024.3 |
| 20260503072059 | 61 | 187 | 0.0 | 0.9 | 0.00 | 0.00 | 0.00 | 81 | 1024.1 |
| 20260503071556 | 60 | 196 | 0.9 | 1.7 | 0.00 | 0.00 | 0.00 | 82 | 1024.3 |
| 20260503071053 | 60 | 181 | 0.0 | 0.0 | 0.00 | 0.00 | 0.00 | 82 | 1024.4 |
| 20260503070549 | 61 | 197 | 0.0 | 0.0 | 0.00 | 0.00 | 0.00 | 80 | 1024.2 |
| 20260503055009 | 62 | 194 | 0.9 | 0.9 | 0.00 | 0.01 | 0.01 | 78 | 1024.6 |
| 20260503054504 | 62 | 190 | 0.9 | 0.9 | 0.00 | 0.01 | 0.01 | 78 | 1024.7 |
| 20260503054002 | 62 | 194 | 0.0 | 0.0 | 0.00 | 0.01 | 0.01 | 78 | 1024.8 |
| 20260503053500 | 62 | 224 | 0.0 | 0.0 | 0.00 | 0.01 | 0.01 | 78 | 1024.9 |
| 20260503052956 | 62 | 224 | 0.0 | 0.0 | 0.00 | 0.01 | 0.01 | 77 | 1024.9 |
| 20260503052454 | 62 | 224 | 0.0 | 0.0 | 0.00 | 0.01 | 0.01 | 77 | 1024.9 |
| 20260503051950 | 62 | 224 | 0.0 | 0.0 | 0.00 | 0.01 | 0.01 | 76 | 1024.8 |
| 20260503051446 | 63 | 224 | 0.0 | 0.0 | 0.00 | 0.01 | 0.01 | 76 | 1024.7 |
| 20260503050943 | 63 | 215 | 0.0 | 0.0 | 0.00 | 0.01 | 0.01 | 75 | 1024.9 |
| 20260503050438 | 63 | 200 | 0.0 | 0.0 | 0.00 | 0.01 | 0.01 | 74 | 1024.8 |
| 20260503045937 | 64 | 207 | 0.0 | 0.0 | 0.00 | 0.01 | 0.01 | 74 | 1024.5 |
| 20260503045434 | 64 | 196 | 0.0 | 0.9 | 0.00 | 0.01 | 0.01 | 74 | 1024.6 |
| 20260503044931 | 64 | 206 | 0.0 | 0.0 | 0.00 | 0.01 | 0.01 | 73 | 1024.7 |
| 20260503044427 | 64 | 192 | 0.0 | 1.7 | 0.00 | 0.01 | 0.01 | 73 | 1024.8 |
| 20260503043925 | 64 | 189 | 0.0 | 0.9 | 0.00 | 0.01 | 0.01 | 73 | 1024.8 |
| 20260503043421 | 64 | 198 | 0.0 | 0.9 | 0.00 | 0.01 | 0.01 | 73 | 1024.5 |
| 20260503042918 | 64 | 192 | 0.0 | 0.9 | 0.00 | 0.01 | 0.01 | 73 | 1024.8 |
| 20260503042415 | 64 | 189 | 0.9 | 0.9 | 0.00 | 0.01 | 0.01 | 73 | 1024.7 |
| 20260503041911 | 64 | 193 | 0.0 | 0.0 | 0.00 | 0.01 | 0.01 | 72 | 1024.7 |
| 20260503041408 | 65 | 195 | 0.0 | 0.0 | 0.00 | 0.01 | 0.01 | 72 | 1024.6 |
| 20260503040906 | 65 | 197 | 0.0 | 0.0 | 0.00 | 0.01 | 0.01 | 71 | 1024.5 |
| 20260503040403 | 66 | 193 | 0.0 | 0.0 | 0.00 | 0.01 | 0.01 | 70 | 1024.6 |
| 20260503035859 | 66 | 185 | 0.9 | 1.7 | 0.00 | 0.01 | 0.01 | 69 | 1024.5 |
| 20260503035356 | 67 | 192 | 0.9 | 0.9 | 0.00 | 0.01 | 0.01 | 69 | 1024.4 |
| 20260503034854 | 67 | 251 | 0.0 | 0.0 | 0.00 | 0.01 | 0.01 | 68 | 1024.3 |
| 20260503034351 | 68 | 183 | 0.0 | 0.0 | 0.00 | 0.01 | 0.01 | 67 | 1024.2 |
| 20260503033848 | 68 | 183 | 0.0 | 0.0 | 0.00 | 0.01 | 0.01 | 67 | 1024.1 |
| 20260503033346 | 68 | 183 | 0.0 | 0.0 | 0.00 | 0.01 | 0.01 | 66 | 1024.0 |
| 20260503032844 | 69 | 182 | 0.0 | 0.0 | 0.00 | 0.01 | 0.01 | 66 | 1023.9 |
| 20260503032343 | 69 | 190 | 0.0 | 0.0 | 0.00 | 0.01 | 0.01 | 65 | 1023.8 |
| 20260503031840 | 69 | 186 | 0.0 | 0.0 | 0.00 | 0.01 | 0.01 | 65 | 1023.9 |
| 20260503031338 | 69 | 171 | 0.0 | 0.0 | 0.00 | 0.01 | 0.01 | 65 | 1023.7 |
| 20260503030834 | 70 | 155 | 0.0 | 1.7 | 0.00 | 0.01 | 0.01 | 64 | 1023.5 |
| 20260503030330 | 70 | 145 | 1.7 | 1.7 | 0.00 | 0.01 | 0.01 | 63 | 1023.3 |
| 20260503025826 | 71 | 77 | 0.9 | 2.6 | 0.00 | 0.01 | 0.01 | 63 | 1023.3 |
| 20260503025324 | 71 | 190 | 0.0 | 0.9 | 0.00 | 0.01 | 0.01 | 62 | 1023.2 |
| 20260503024821 | 72 | 138 | 0.9 | 0.9 | 0.00 | 0.01 | 0.01 | 59 | 1023.3 |
| 20260503024317 | 73 | 154 | 0.9 | 2.6 | 0.00 | 0.01 | 0.01 | 56 | 1023.0 |
| 20260503023815 | 73 | 138 | 2.6 | 2.6 | 0.00 | 0.01 | 0.01 | 55 | 1022.8 |
| 20260503023312 | 74 | 163 | 0.9 | 1.7 | 0.00 | 0.01 | 0.01 | 55 | 1022.7 |
| 20260503022809 | 74 | 172 | 0.9 | 0.9 | 0.00 | 0.01 | 0.01 | 54 | 1022.6 |
| 20260503022308 | 74 | 163 | 0.0 | 1.7 | 0.00 | 0.01 | 0.01 | 54 | 1022.6 |
| 20260503021805 | 74 | 156 | 0.0 | 1.7 | 0.00 | 0.01 | 0.01 | 54 | 1022.9 |
| 20260503021301 | 74 | 176 | 0.0 | 1.7 | 0.00 | 0.01 | 0.01 | 54 | 1022.6 |
| 20260503020759 | 74 | 31 | 0.9 | 1.7 | 0.00 | 0.01 | 0.01 | 54 | 1022.6 |
| 20260503020256 | 74 | 12 | 0.9 | 1.7 | 0.00 | 0.01 | 0.01 | 54 | 1022.4 |
| 20260503015752 | 75 | 161 | 0.0 | 0.9 | 0.00 | 0.01 | 0.01 | 54 | 1022.5 |
| 20260503015249 | 75 | 7 | 0.9 | 1.7 | 0.00 | 0.01 | 0.01 | 54 | 1022.6 |
| 20260503014745 | 75 | 170 | 2.6 | 5.2 | 0.00 | 0.01 | 0.01 | 52 | 1022.7 |
| 20260503014243 | 76 | 42 | 0.9 | 3.5 | 0.00 | 0.01 | 0.01 | 52 | 1022.5 |
| 20260503013740 | 78 | 176 | 0.9 | 2.6 | 0.00 | 0.01 | 0.01 | 50 | 1022.5 |
| 20260503013238 | 78 | 194 | 0.9 | 1.7 | 0.00 | 0.01 | 0.01 | 49 | 1022.6 |
| 20260503012735 | 78 | 172 | 0.0 | 2.6 | 0.00 | 0.01 | 0.01 | 49 | 1022.5 |
| 20260503012232 | 78 | 165 | 0.9 | 2.6 | 0.00 | 0.01 | 0.01 | 49 | 1022.5 |
| 20260503011728 | 78 | 186 | 0.9 | 1.7 | 0.00 | 0.01 | 0.01 | 50 | 1022.6 |
| 20260503011226 | 78 | 128 | 2.6 | 2.6 | 0.00 | 0.01 | 0.01 | 49 | 1022.5 |
| 20260503010722 | 78 | 95 | 0.9 | 2.6 | 0.00 | 0.01 | 0.01 | 50 | 1022.5 |
| 20260503010219 | 78 | 131 | 0.9 | 1.7 | 0.00 | 0.01 | 0.01 | 50 | 1022.5 |
| 20260503005716 | 77 | 158 | 0.9 | 0.9 | 0.00 | 0.01 | 0.01 | 51 | 1022.8 |
| 20260503005213 | 77 | 100 | 1.7 | 2.6 | 0.00 | 0.01 | 0.01 | 51 | 1022.6 |
| 20260503004709 | 77 | 127 | 4.3 | 6.1 | 0.00 | 0.01 | 0.01 | 50 | 1022.8 |
| 20260503004208 | 77 | 96 | 0.9 | 6.1 | 0.00 | 0.01 | 0.01 | 50 | 1022.8 |
| 20260503003705 | 78 | 75 | 1.7 | 3.5 | 0.00 | 0.01 | 0.01 | 50 | 1022.6 |
| 20260503003202 | 78 | 199 | 0.9 | 2.6 | 0.00 | 0.01 | 0.01 | 50 | 1022.7 |
| 20260503002658 | 79 | 121 | 2.6 | 3.5 | 0.00 | 0.01 | 0.01 | 49 | 1022.6 |
| 20260503002155 | 78 | 180 | 0.0 | 2.6 | 0.00 | 0.01 | 0.01 | 50 | 1022.7 |
| 20260503001651 | 78 | 68 | 1.7 | 2.6 | 0.00 | 0.01 | 0.01 | 50 | 1022.6 |
| 20260503001148 | 78 | 199 | 0.9 | 2.6 | 0.00 | 0.01 | 0.01 | 51 | 1022.6 |
| 20260503000646 | 78 | 193 | 1.7 | 3.5 | 0.00 | 0.01 | 0.01 | 49 | 1022.7 |
| 20260503000143 | 78 | 89 | 1.7 | 1.7 | 0.00 | 0.01 | 0.01 | 50 | 1022.8 |
| 20260502235639 | 78 | 134 | 0.0 | 2.6 | 0.00 | 0.01 | 0.01 | 50 | 1022.8 |
| 20260502235138 | 77 | 83 | 0.9 | 1.7 | 0.00 | 0.01 | 0.01 | 51 | 1023.0 |
| 20260502234633 | 77 | 127 | 1.7 | 5.2 | 0.00 | 0.01 | 0.01 | 52 | 1023.0 |
| 20260502234131 | 77 | 104 | 0.9 | 2.6 | 0.00 | 0.01 | 0.01 | 51 | 1023.1 |
| 20260502233627 | 77 | 74 | 1.7 | 5.2 | 0.00 | 0.01 | 0.01 | 50 | 1023.1 |
| 20260502233124 | 77 | 251 | 2.6 | 3.5 | 0.00 | 0.01 | 0.01 | 50 | 1023.2 |
| 20260502232619 | 77 | 68 | 1.7 | 2.6 | 0.00 | 0.01 | 0.01 | 51 | 1023.3 |
| 20260502232117 | 77 | 62 | 2.6 | 3.5 | 0.00 | 0.01 | 0.01 | 50 | 1023.3 |
| 20260502231614 | 77 | 122 | 1.7 | 1.7 | 0.00 | 0.01 | 0.01 | 50 | 1023.3 |
| 20260502231112 | 77 | 56 | 2.6 | 3.5 | 0.00 | 0.01 | 0.01 | 50 | 1023.5 |
| 20260502230610 | 77 | 193 | 0.9 | 5.2 | 0.00 | 0.01 | 0.01 | 49 | 1023.7 |
| 20260502230108 | 76 | 321 | 1.7 | 3.5 | 0.00 | 0.01 | 0.01 | 50 | 1023.7 |
| 20260502225603 | 76 | 184 | 3.5 | 6.1 | 0.00 | 0.01 | 0.01 | 50 | 1023.7 |
| 20260502225100 | 76 | 187 | 0.9 | 5.2 | 0.00 | 0.01 | 0.01 | 51 | 1023.8 |
| 20260502224556 | 75 | 153 | 1.7 | 5.2 | 0.00 | 0.01 | 0.01 | 53 | 1023.9 |
| 20260502224053 | 76 | 85 | 0.9 | 5.2 | 0.00 | 0.01 | 0.01 | 52 | 1024.0 |